sensor_id;sensor_type;location;lat;lon;timestamp;pressure;altitude;pressure_sealevel;temperature;humidity
2178;BME280;1095;50.992;6.798;2024-03-07T00:00:22;101893.19;;;5.31;91.62
2178;BME280;1095;50.992;6.798;2024-03-07T00:02:50;101905.84;;;5.22;92.36
2178;BME280;1095;50.992;6.798;2024-03-07T00:05:18;101897.41;;;5.15;92.64
2178;BME280;1095;50.992;6.798;2024-03-07T00:07:45;101904.47;;;5.13;93.35
2178;BME280;1095;50.992;6.798;2024-03-07T00:10:12;101896.81;;;5.08;93.28
2178;BME280;1095;50.992;6.798;2024-03-07T00:12:40;101903.63;;;5.13;92.88
2178;BME280;1095;50.992;6.798;2024-03-07T00:15:08;101901.28;;;5.06;92.24
2178;BME280;1095;50.992;6.798;2024-03-07T00:17:38;101911.84;;;5.05;92.60
2178;BME280;1095;50.992;6.798;2024-03-07T00:20:06;101911.00;;;5.04;92.77
2178;BME280;1095;50.992;6.798;2024-03-07T00:22:34;101906.94;;;4.97;92.93
2178;BME280;1095;50.992;6.798;2024-03-07T00:25:01;101912.06;;;5.00;93.24
2178;BME280;1095;50.992;6.798;2024-03-07T00:27:30;101911.34;;;4.97;92.85
2178;BME280;1095;50.992;6.798;2024-03-07T00:29:56;101902.94;;;4.89;93.88
2178;BME280;1095;50.992;6.798;2024-03-07T00:32:23;101903.91;;;4.86;93.97
2178;BME280;1095;50.992;6.798;2024-03-07T00:34:53;101912.25;;;4.96;93.08
2178;BME280;1095;50.992;6.798;2024-03-07T00:37:20;101905.56;;;4.89;93.03
2178;BME280;1095;50.992;6.798;2024-03-07T00:39:47;101908.97;;;4.91;94.17
2178;BME280;1095;50.992;6.798;2024-03-07T00:42:15;101917.03;;;4.86;94.74
2178;BME280;1095;50.992;6.798;2024-03-07T00:44:46;101901.56;;;4.80;95.34
2178;BME280;1095;50.992;6.798;2024-03-07T00:47:14;101894.75;;;4.76;94.79
2178;BME280;1095;50.992;6.798;2024-03-07T00:49:43;101899.25;;;4.72;95.06
2178;BME280;1095;50.992;6.798;2024-03-07T00:52:12;101901.22;;;4.67;94.95
2178;BME280;1095;50.992;6.798;2024-03-07T00:54:38;101898.91;;;4.60;95.71
2178;BME280;1095;50.992;6.798;2024-03-07T00:57:05;101901.75;;;4.55;96.06
2178;BME280;1095;50.992;6.798;2024-03-07T00:59:33;101894.94;;;4.51;96.75
2178;BME280;1095;50.992;6.798;2024-03-07T01:01:59;101898.81;;;4.42;96.15
2178;BME280;1095;50.992;6.798;2024-03-07T01:04:26;101893.38;;;4.47;96.15
2178;BME280;1095;50.992;6.798;2024-03-07T01:06:56;101896.19;;;4.42;95.76
2178;BME280;1095;50.992;6.798;2024-03-07T01:09:24;101902.28;;;4.43;95.77
2178;BME280;1095;50.992;6.798;2024-03-07T01:11:51;101897.22;;;4.38;95.36
2178;BME280;1095;50.992;6.798;2024-03-07T01:14:17;101888.75;;;4.31;95.79
2178;BME280;1095;50.992;6.798;2024-03-07T01:16:44;101883.56;;;4.30;96.20
2178;BME280;1095;50.992;6.798;2024-03-07T01:19:10;101884.88;;;4.20;97.09
2178;BME280;1095;50.992;6.798;2024-03-07T01:21:37;101886.56;;;4.21;97.41
2178;BME280;1095;50.992;6.798;2024-03-07T01:24:04;101886.94;;;4.34;97.07
2178;BME280;1095;50.992;6.798;2024-03-07T01:26:32;101881.91;;;4.27;97.37
2178;BME280;1095;50.992;6.798;2024-03-07T01:28:59;101880.47;;;4.20;97.78
2178;BME280;1095;50.992;6.798;2024-03-07T01:31:26;101876.69;;;4.05;97.77
2178;BME280;1095;50.992;6.798;2024-03-07T01:33:53;101870.75;;;4.02;98.20
2178;BME280;1095;50.992;6.798;2024-03-07T01:36:20;101872.75;;;3.95;98.24
2178;BME280;1095;50.992;6.798;2024-03-07T01:38:47;101875.63;;;3.89;98.32
2178;BME280;1095;50.992;6.798;2024-03-07T01:41:13;101870.41;;;3.88;98.77
2178;BME280;1095;50.992;6.798;2024-03-07T01:43:42;101869.38;;;3.92;98.51
2178;BME280;1095;50.992;6.798;2024-03-07T01:46:09;101867.69;;;3.91;98.50
2178;BME280;1095;50.992;6.798;2024-03-07T01:48:37;101866.94;;;3.87;98.77
2178;BME280;1095;50.992;6.798;2024-03-07T01:51:06;101869.94;;;3.78;99.34
2178;BME280;1095;50.992;6.798;2024-03-07T01:53:34;101869.91;;;3.79;99.00
2178;BME280;1095;50.992;6.798;2024-03-07T01:56:02;101864.34;;;3.87;98.74
2178;BME280;1095;50.992;6.798;2024-03-07T01:58:30;101860.78;;;3.88;97.90
2178;BME280;1095;50.992;6.798;2024-03-07T02:00:58;101855.63;;;3.87;97.82
2178;BME280;1095;50.992;6.798;2024-03-07T02:03:24;101856.72;;;3.81;98.23
2178;BME280;1095;50.992;6.798;2024-03-07T02:05:51;101856.25;;;3.71;98.17
2178;BME280;1095;50.992;6.798;2024-03-07T02:08:18;101857.03;;;3.73;98.59
2178;BME280;1095;50.992;6.798;2024-03-07T02:10:44;101850.94;;;3.73;98.33
2178;BME280;1095;50.992;6.798;2024-03-07T02:13:11;101850.38;;;3.65;97.24
2178;BME280;1095;50.992;6.798;2024-03-07T02:15:38;101848.78;;;3.61;97.45
2178;BME280;1095;50.992;6.798;2024-03-07T02:18:06;101844.28;;;3.64;96.66
2178;BME280;1095;50.992;6.798;2024-03-07T02:20:34;101845.50;;;3.55;96.20
2178;BME280;1095;50.992;6.798;2024-03-07T02:23:02;101838.94;;;3.45;96.66
2178;BME280;1095;50.992;6.798;2024-03-07T02:25:29;101835.06;;;3.32;96.95
2178;BME280;1095;50.992;6.798;2024-03-07T02:27:57;101834.41;;;3.27;96.70
2178;BME280;1095;50.992;6.798;2024-03-07T02:30:23;101840.66;;;3.23;96.89
2178;BME280;1095;50.992;6.798;2024-03-07T02:32:50;101832.81;;;3.23;97.22
2178;BME280;1095;50.992;6.798;2024-03-07T02:35:20;101826.09;;;3.16;97.22
2178;BME280;1095;50.992;6.798;2024-03-07T02:37:46;101836.38;;;3.20;96.86
2178;BME280;1095;50.992;6.798;2024-03-07T02:40:15;101831.72;;;3.05;97.71
2178;BME280;1095;50.992;6.798;2024-03-07T02:42:42;101839.41;;;3.10;97.30
2178;BME280;1095;50.992;6.798;2024-03-07T02:45:09;101823.78;;;3.08;97.65
2178;BME280;1095;50.992;6.798;2024-03-07T02:47:40;101828.03;;;3.11;97.18
2178;BME280;1095;50.992;6.798;2024-03-07T02:50:16;101824.66;;;3.07;97.67
2178;BME280;1095;50.992;6.798;2024-03-07T02:52:46;101824.91;;;3.01;97.67
2178;BME280;1095;50.992;6.798;2024-03-07T02:55:15;101836.44;;;2.95;97.78
2178;BME280;1095;50.992;6.798;2024-03-07T02:57:41;101828.53;;;2.97;97.89
2178;BME280;1095;50.992;6.798;2024-03-07T03:00:09;101824.25;;;2.94;98.38
2178;BME280;1095;50.992;6.798;2024-03-07T03:02:45;101818.00;;;2.98;98.39
2178;BME280;1095;50.992;6.798;2024-03-07T03:05:13;101817.38;;;2.92;98.47
2178;BME280;1095;50.992;6.798;2024-03-07T03:07:40;101817.50;;;2.89;98.79
2178;BME280;1095;50.992;6.798;2024-03-07T03:10:07;101815.56;;;2.94;98.06
2178;BME280;1095;50.992;6.798;2024-03-07T03:12:37;101811.31;;;2.91;97.83
2178;BME280;1095;50.992;6.798;2024-03-07T03:15:05;101812.84;;;2.97;97.34
2178;BME280;1095;50.992;6.798;2024-03-07T03:17:35;101808.13;;;2.83;97.79
2178;BME280;1095;50.992;6.798;2024-03-07T03:20:02;101810.06;;;2.78;98.75
2178;BME280;1095;50.992;6.798;2024-03-07T03:22:30;101804.75;;;2.79;98.19
2178;BME280;1095;50.992;6.798;2024-03-07T03:24:56;101811.00;;;2.75;98.26
2178;BME280;1095;50.992;6.798;2024-03-07T03:27:23;101809.41;;;2.71;98.00
2178;BME280;1095;50.992;6.798;2024-03-07T03:29:51;101800.03;;;2.66;97.44
2178;BME280;1095;50.992;6.798;2024-03-07T03:32:17;101801.72;;;2.67;97.88
2178;BME280;1095;50.992;6.798;2024-03-07T03:34:44;101808.88;;;2.62;97.59
2178;BME280;1095;50.992;6.798;2024-03-07T03:37:11;101811.50;;;2.62;98.10
2178;BME280;1095;50.992;6.798;2024-03-07T03:39:37;101814.97;;;2.62;97.38
2178;BME280;1095;50.992;6.798;2024-03-07T03:42:04;101814.19;;;2.59;97.76
2178;BME280;1095;50.992;6.798;2024-03-07T03:44:32;101821.25;;;2.57;97.55
2178;BME280;1095;50.992;6.798;2024-03-07T03:47:00;101815.38;;;2.50;97.24
2178;BME280;1095;50.992;6.798;2024-03-07T03:49:29;101805.84;;;2.49;97.78
2178;BME280;1095;50.992;6.798;2024-03-07T03:51:56;101807.75;;;2.44;97.78
2178;BME280;1095;50.992;6.798;2024-03-07T03:54:23;101804.38;;;2.42;97.83
2178;BME280;1095;50.992;6.798;2024-03-07T03:56:49;101809.63;;;2.40;98.35
2178;BME280;1095;50.992;6.798;2024-03-07T03:59:16;101809.53;;;2.43;98.14
2178;BME280;1095;50.992;6.798;2024-03-07T04:01:42;101799.88;;;2.45;98.11
2178;BME280;1095;50.992;6.798;2024-03-07T04:04:12;101804.41;;;2.40;97.79
2178;BME280;1095;50.992;6.798;2024-03-07T04:06:38;101800.19;;;2.36;97.78
2178;BME280;1095;50.992;6.798;2024-03-07T04:09:05;101796.56;;;2.40;97.57
2178;BME280;1095;50.992;6.798;2024-03-07T04:11:32;101800.34;;;2.32;97.59
2178;BME280;1095;50.992;6.798;2024-03-07T04:13:59;101802.09;;;2.31;97.51
2178;BME280;1095;50.992;6.798;2024-03-07T04:16:26;101802.06;;;2.33;97.38
2178;BME280;1095;50.992;6.798;2024-03-07T04:18:53;101792.63;;;2.28;97.58
2178;BME280;1095;50.992;6.798;2024-03-07T04:21:22;101797.00;;;2.28;97.01
2178;BME280;1095;50.992;6.798;2024-03-07T04:23:50;101794.41;;;2.28;96.99
2178;BME280;1095;50.992;6.798;2024-03-07T04:26:17;101791.94;;;2.23;97.11
2178;BME280;1095;50.992;6.798;2024-03-07T04:28:44;101793.66;;;2.23;96.65
2178;BME280;1095;50.992;6.798;2024-03-07T04:31:10;101795.41;;;2.24;96.91
2178;BME280;1095;50.992;6.798;2024-03-07T04:33:37;101791.28;;;2.17;96.72
2178;BME280;1095;50.992;6.798;2024-03-07T04:36:04;101792.28;;;2.13;97.15
2178;BME280;1095;50.992;6.798;2024-03-07T04:38:34;101787.31;;;2.05;96.87
2178;BME280;1095;50.992;6.798;2024-03-07T04:41:01;101799.56;;;2.03;97.26
2178;BME280;1095;50.992;6.798;2024-03-07T04:43:30;101793.56;;;2.01;97.15
2178;BME280;1095;50.992;6.798;2024-03-07T04:45:58;101791.69;;;2.05;97.44
2178;BME280;1095;50.992;6.798;2024-03-07T04:48:25;101792.81;;;1.97;97.02
2178;BME280;1095;50.992;6.798;2024-03-07T04:50:51;101795.41;;;1.97;97.20
2178;BME280;1095;50.992;6.798;2024-03-07T04:53:18;101793.69;;;1.96;97.86
2178;BME280;1095;50.992;6.798;2024-03-07T04:55:46;101791.03;;;1.98;97.36
2178;BME280;1095;50.992;6.798;2024-03-07T04:58:13;101787.59;;;1.97;97.40
2178;BME280;1095;50.992;6.798;2024-03-07T05:00:39;101798.19;;;1.91;97.73
2178;BME280;1095;50.992;6.798;2024-03-07T05:03:06;101798.47;;;1.84;98.39
2178;BME280;1095;50.992;6.798;2024-03-07T05:05:33;101803.69;;;1.84;98.88
2178;BME280;1095;50.992;6.798;2024-03-07T05:07:59;101800.97;;;1.87;98.46
2178;BME280;1095;50.992;6.798;2024-03-07T05:10:26;101790.59;;;1.85;98.72
2178;BME280;1095;50.992;6.798;2024-03-07T05:13:08;101793.81;;;1.93;99.07
2178;BME280;1095;50.992;6.798;2024-03-07T05:15:36;101802.41;;;1.97;99.20
2178;BME280;1095;50.992;6.798;2024-03-07T05:18:03;101799.66;;;2.00;100.00
2178;BME280;1095;50.992;6.798;2024-03-07T05:20:30;101796.59;;;2.14;100.00
2178;BME280;1095;50.992;6.798;2024-03-07T05:22:56;101802.31;;;2.25;100.00
2178;BME280;1095;50.992;6.798;2024-03-07T05:25:24;101793.09;;;2.40;99.74
2178;BME280;1095;50.992;6.798;2024-03-07T05:27:51;101796.38;;;2.46;99.19
2178;BME280;1095;50.992;6.798;2024-03-07T05:30:20;101792.03;;;2.45;99.41
2178;BME280;1095;50.992;6.798;2024-03-07T05:32:48;101793.84;;;2.43;99.19
2178;BME280;1095;50.992;6.798;2024-03-07T05:35:15;101799.94;;;2.44;99.44
2178;BME280;1095;50.992;6.798;2024-03-07T05:37:42;101798.97;;;2.46;99.46
2178;BME280;1095;50.992;6.798;2024-03-07T05:40:12;101795.34;;;2.50;99.63
2178;BME280;1095;50.992;6.798;2024-03-07T05:42:39;101791.81;;;2.51;99.70
2178;BME280;1095;50.992;6.798;2024-03-07T05:45:06;101785.69;;;2.52;99.99
2178;BME280;1095;50.992;6.798;2024-03-07T05:47:35;101788.31;;;2.52;100.00
2178;BME280;1095;50.992;6.798;2024-03-07T05:50:02;101790.13;;;2.50;100.00
2178;BME280;1095;50.992;6.798;2024-03-07T05:52:29;101790.13;;;2.50;100.00
2178;BME280;1095;50.992;6.798;2024-03-07T05:54:55;101787.34;;;2.55;100.00
2178;BME280;1095;50.992;6.798;2024-03-07T05:57:22;101783.72;;;2.59;99.94
2178;BME280;1095;50.992;6.798;2024-03-07T05:59:48;101786.19;;;2.64;100.00
2178;BME280;1095;50.992;6.798;2024-03-07T06:02:15;101783.50;;;2.65;99.61
2178;BME280;1095;50.992;6.798;2024-03-07T06:04:43;101788.56;;;2.70;99.80
2178;BME280;1095;50.992;6.798;2024-03-07T06:07:10;101784.84;;;2.75;99.43
2178;BME280;1095;50.992;6.798;2024-03-07T06:09:37;101789.91;;;2.80;98.66
2178;BME280;1095;50.992;6.798;2024-03-07T06:12:04;101784.66;;;2.82;98.71
2178;BME280;1095;50.992;6.798;2024-03-07T06:14:34;101786.13;;;2.89;98.20
2178;BME280;1095;50.992;6.798;2024-03-07T06:17:00;101780.53;;;2.98;97.92
2178;BME280;1095;50.992;6.798;2024-03-07T06:19:27;101788.97;;;3.06;97.31
2178;BME280;1095;50.992;6.798;2024-03-07T06:21:55;101795.69;;;3.13;96.50
2178;BME280;1095;50.992;6.798;2024-03-07T06:24:21;101794.31;;;3.26;97.77
2178;BME280;1095;50.992;6.798;2024-03-07T06:26:48;101785.38;;;3.32;96.51
2178;BME280;1095;50.992;6.798;2024-03-07T06:29:25;101785.25;;;3.35;96.86
2178;BME280;1095;50.992;6.798;2024-03-07T06:31:51;101786.59;;;3.45;96.07
2178;BME280;1095;50.992;6.798;2024-03-07T06:34:22;101787.44;;;3.46;94.77
2178;BME280;1095;50.992;6.798;2024-03-07T06:36:49;101786.22;;;3.54;95.14
2178;BME280;1095;50.992;6.798;2024-03-07T06:39:17;101784.16;;;3.63;92.99
2178;BME280;1095;50.992;6.798;2024-03-07T06:41:47;101780.44;;;3.68;92.40
2178;BME280;1095;50.992;6.798;2024-03-07T06:44:16;101780.50;;;4.09;90.78
2178;BME280;1095;50.992;6.798;2024-03-07T06:46:48;101786.75;;;4.47;89.62
2178;BME280;1095;50.992;6.798;2024-03-07T06:49:15;101786.91;;;4.84;86.79
2178;BME280;1095;50.992;6.798;2024-03-07T06:51:41;101782.06;;;4.93;84.47
2178;BME280;1095;50.992;6.798;2024-03-07T06:54:09;101781.59;;;5.23;85.13
2178;BME280;1095;50.992;6.798;2024-03-07T06:56:37;101777.50;;;5.53;83.90
2178;BME280;1095;50.992;6.798;2024-03-07T06:59:05;101782.47;;;5.60;81.59
2178;BME280;1095;50.992;6.798;2024-03-07T07:01:32;101777.22;;;5.60;81.11
2178;BME280;1095;50.992;6.798;2024-03-07T07:03:59;101781.09;;;5.70;80.97
2178;BME280;1095;50.992;6.798;2024-03-07T07:06:28;101775.22;;;5.65;81.40
2178;BME280;1095;50.992;6.798;2024-03-07T07:08:56;101773.31;;;6.04;79.73
2178;BME280;1095;50.992;6.798;2024-03-07T07:11:24;101779.03;;;6.30;78.19
2178;BME280;1095;50.992;6.798;2024-03-07T07:13:52;101770.03;;;6.84;76.17
2178;BME280;1095;50.992;6.798;2024-03-07T07:16:18;101778.56;;;7.05;74.79
2178;BME280;1095;50.992;6.798;2024-03-07T07:18:45;101776.34;;;6.98;74.68
2178;BME280;1095;50.992;6.798;2024-03-07T07:21:11;101781.91;;;6.92;74.23
2178;BME280;1095;50.992;6.798;2024-03-07T07:23:41;101773.88;;;6.62;74.93
2178;BME280;1095;50.992;6.798;2024-03-07T07:26:36;101763.94;;;7.00;72.64
2178;BME280;1095;50.992;6.798;2024-03-07T07:32:13;101766.66;;;6.98;72.95
2178;BME280;1095;50.992;6.798;2024-03-07T07:34:54;101768.84;;;6.90;72.44
2178;BME280;1095;50.992;6.798;2024-03-07T07:37:23;101764.53;;;7.21;71.51
2178;BME280;1095;50.992;6.798;2024-03-07T07:39:50;101762.75;;;7.21;70.72
2178;BME280;1095;50.992;6.798;2024-03-07T07:42:41;101768.69;;;6.93;72.01
2178;BME280;1095;50.992;6.798;2024-03-07T07:45:28;101765.28;;;7.23;70.14
2178;BME280;1095;50.992;6.798;2024-03-07T07:48:30;101765.81;;;7.14;70.22
2178;BME280;1095;50.992;6.798;2024-03-07T07:52:58;101763.59;;;7.53;68.89
2178;BME280;1095;50.992;6.798;2024-03-07T07:54:41;101762.47;;;6.94;70.22
2178;BME280;1095;50.992;6.798;2024-03-07T07:57:10;101766.84;;;7.11;69.86
2178;BME280;1095;50.992;6.798;2024-03-07T07:59:49;101763.44;;;7.25;68.79
2178;BME280;1095;50.992;6.798;2024-03-07T08:02:18;101763.44;;;7.41;68.25
2178;BME280;1095;50.992;6.798;2024-03-07T08:04:50;101759.13;;;7.24;68.40
2178;BME280;1095;50.992;6.798;2024-03-07T08:07:20;101752.41;;;7.80;67.32
2178;BME280;1095;50.992;6.798;2024-03-07T08:09:51;101756.47;;;7.40;67.31
2178;BME280;1095;50.992;6.798;2024-03-07T08:12:57;101763.59;;;7.69;65.93
2178;BME280;1095;50.992;6.798;2024-03-07T08:15:44;101764.69;;;7.49;65.95
2178;BME280;1095;50.992;6.798;2024-03-07T08:18:23;101767.00;;;7.40;66.99
2178;BME280;1095;50.992;6.798;2024-03-07T08:20:52;101758.09;;;7.88;65.21
2178;BME280;1095;50.992;6.798;2024-03-07T08:23:19;101756.41;;;8.17;64.97
2178;BME280;1095;50.992;6.798;2024-03-07T08:25:45;101756.44;;;7.71;65.35
2178;BME280;1095;50.992;6.798;2024-03-07T08:28:12;101756.56;;;8.14;62.81
2178;BME280;1095;50.992;6.798;2024-03-07T08:30:43;101754.03;;;7.82;64.43
2178;BME280;1095;50.992;6.798;2024-03-07T08:33:10;101745.53;;;8.07;62.08
2178;BME280;1095;50.992;6.798;2024-03-07T08:35:41;101752.25;;;7.83;62.91
2178;BME280;1095;50.992;6.798;2024-03-07T08:38:19;101757.88;;;7.77;61.86
2178;BME280;1095;50.992;6.798;2024-03-07T08:40:46;101747.72;;;7.85;61.89
2178;BME280;1095;50.992;6.798;2024-03-07T08:43:13;101740.09;;;8.25;60.13
2178;BME280;1095;50.992;6.798;2024-03-07T08:45:52;101739.22;;;7.96;59.02
2178;BME280;1095;50.992;6.798;2024-03-07T08:48:21;101735.31;;;7.87;57.62
2178;BME280;1095;50.992;6.798;2024-03-07T08:50:50;101746.25;;;7.65;58.92
2178;BME280;1095;50.992;6.798;2024-03-07T08:53:22;101732.28;;;7.79;57.51
2178;BME280;1095;50.992;6.798;2024-03-07T08:55:53;101722.44;;;7.67;56.93
2178;BME280;1095;50.992;6.798;2024-03-07T08:58:23;101720.94;;;8.07;56.18
2178;BME280;1095;50.992;6.798;2024-03-07T09:00:50;101735.19;;;8.04;55.96
2178;BME280;1095;50.992;6.798;2024-03-07T09:03:20;101737.94;;;8.17;55.10
2178;BME280;1095;50.992;6.798;2024-03-07T09:05:50;101727.16;;;7.92;54.90
2178;BME280;1095;50.992;6.798;2024-03-07T09:08:17;101734.50;;;7.71;56.03
2178;BME280;1095;50.992;6.798;2024-03-07T09:10:44;101722.81;;;7.91;55.61
2178;BME280;1095;50.992;6.798;2024-03-07T09:13:11;101723.22;;;7.69;55.51
2178;BME280;1095;50.992;6.798;2024-03-07T09:15:37;101732.44;;;7.76;55.54
2178;BME280;1095;50.992;6.798;2024-03-07T09:18:04;101718.34;;;7.77;56.40
2178;BME280;1095;50.992;6.798;2024-03-07T09:20:31;101719.72;;;7.68;56.50
2178;BME280;1095;50.992;6.798;2024-03-07T09:23:01;101715.56;;;7.94;57.41
2178;BME280;1095;50.992;6.798;2024-03-07T09:28:36;101712.34;;;7.89;55.47
2178;BME280;1095;50.992;6.798;2024-03-07T09:31:03;101716.72;;;7.74;55.97
2178;BME280;1095;50.992;6.798;2024-03-07T09:33:30;101725.13;;;7.35;57.42
2178;BME280;1095;50.992;6.798;2024-03-07T09:35:56;101735.16;;;7.13;57.87
2178;BME280;1095;50.992;6.798;2024-03-07T09:38:25;101723.44;;;7.34;57.98
2178;BME280;1095;50.992;6.798;2024-03-07T09:40:53;101723.00;;;7.26;57.95
2178;BME280;1095;50.992;6.798;2024-03-07T09:43:20;101728.03;;;6.99;58.72
2178;BME280;1095;50.992;6.798;2024-03-07T09:45:49;101734.72;;;7.04;58.81
2178;BME280;1095;50.992;6.798;2024-03-07T09:48:20;101718.84;;;6.90;59.03
2178;BME280;1095;50.992;6.798;2024-03-07T09:50:52;101726.66;;;7.07;58.81
2178;BME280;1095;50.992;6.798;2024-03-07T09:53:21;101730.06;;;7.09;58.70
2178;BME280;1095;50.992;6.798;2024-03-07T09:55:51;101725.06;;;7.21;58.51
2178;BME280;1095;50.992;6.798;2024-03-07T09:58:19;101729.38;;;7.22;58.26
2178;BME280;1095;50.992;6.798;2024-03-07T10:00:47;101729.81;;;7.30;59.17
2178;BME280;1095;50.992;6.798;2024-03-07T10:03:38;101725.53;;;7.59;57.37
2178;BME280;1095;50.992;6.798;2024-03-07T10:06:22;101722.75;;;7.76;57.15
2178;BME280;1095;50.992;6.798;2024-03-07T10:08:50;101737.31;;;7.68;57.30
2178;BME280;1095;50.992;6.798;2024-03-07T10:11:28;101711.63;;;7.41;58.08
2178;BME280;1095;50.992;6.798;2024-03-07T10:14:06;101730.50;;;7.33;57.83
2178;BME280;1095;50.992;6.798;2024-03-07T10:16:47;101729.44;;;7.36;58.15
2178;BME280;1095;50.992;6.798;2024-03-07T10:19:19;101719.44;;;7.43;58.20
2178;BME280;1095;50.992;6.798;2024-03-07T10:21:54;101729.75;;;7.62;57.11
2178;BME280;1095;50.992;6.798;2024-03-07T10:24:39;101727.38;;;7.73;56.69
2178;BME280;1095;50.992;6.798;2024-03-07T10:27:28;101720.22;;;7.75;57.20
2178;BME280;1095;50.992;6.798;2024-03-07T10:30:15;101725.50;;;8.19;56.29
2178;BME280;1095;50.992;6.798;2024-03-07T10:32:48;101714.25;;;7.87;57.03
2178;BME280;1095;50.992;6.798;2024-03-07T10:38:16;101707.28;;;7.86;56.44
2178;BME280;1095;50.992;6.798;2024-03-07T10:40:56;101684.53;;;7.99;56.99
2178;BME280;1095;50.992;6.798;2024-03-07T10:43:31;101681.09;;;7.83;56.76
2178;BME280;1095;50.992;6.798;2024-03-07T10:46:07;101683.06;;;7.79;56.41
2178;BME280;1095;50.992;6.798;2024-03-07T10:48:39;101678.47;;;7.97;56.27
2178;BME280;1095;50.992;6.798;2024-03-07T10:51:14;101675.16;;;7.94;56.94
2178;BME280;1095;50.992;6.798;2024-03-07T10:53:53;101674.38;;;8.22;56.12
2178;BME280;1095;50.992;6.798;2024-03-07T10:56:42;101679.41;;;8.55;55.83
2178;BME280;1095;50.992;6.798;2024-03-07T11:02:41;101671.66;;;8.52;55.37
2178;BME280;1095;50.992;6.798;2024-03-07T11:05:15;101677.44;;;8.44;55.70
2178;BME280;1095;50.992;6.798;2024-03-07T11:08:17;101665.88;;;9.15;54.64
2178;BME280;1095;50.992;6.798;2024-03-07T11:11:06;101660.78;;;8.85;54.06
2178;BME280;1095;50.992;6.798;2024-03-07T11:13:54;101653.28;;;8.65;54.40
2178;BME280;1095;50.992;6.798;2024-03-07T11:16:48;101657.22;;;9.13;53.28
2178;BME280;1095;50.992;6.798;2024-03-07T11:19:42;101646.44;;;9.43;52.08
2178;BME280;1095;50.992;6.798;2024-03-07T11:22:53;101641.09;;;9.57;53.85
2178;BME280;1095;50.992;6.798;2024-03-07T11:25:41;101643.09;;;9.67;52.20
2178;BME280;1095;50.992;6.798;2024-03-07T11:28:46;101641.53;;;9.37;52.26
2178;BME280;1095;50.992;6.798;2024-03-07T11:31:44;101632.63;;;9.52;52.57
2178;BME280;1095;50.992;6.798;2024-03-07T11:37:16;101647.75;;;9.23;53.26
2178;BME280;1095;50.992;6.798;2024-03-07T11:39:53;101629.59;;;9.31;52.87
2178;BME280;1095;50.992;6.798;2024-03-07T11:42:26;101634.06;;;9.04;53.50
2178;BME280;1095;50.992;6.798;2024-03-07T11:44:54;101630.63;;;8.89;53.77
2178;BME280;1095;50.992;6.798;2024-03-07T11:47:37;101632.44;;;9.01;53.59
2178;BME280;1095;50.992;6.798;2024-03-07T11:50:22;101616.94;;;9.36;53.70
2178;BME280;1095;50.992;6.798;2024-03-07T11:52:56;101612.38;;;9.26;54.27
2178;BME280;1095;50.992;6.798;2024-03-07T11:55:31;101614.25;;;9.24;53.61
2178;BME280;1095;50.992;6.798;2024-03-07T11:58:16;101606.91;;;9.29;54.07
2178;BME280;1095;50.992;6.798;2024-03-07T12:00:52;101601.00;;;9.38;53.90
2178;BME280;1095;50.992;6.798;2024-03-07T12:03:39;101584.91;;;9.41;53.37
2178;BME280;1095;50.992;6.798;2024-03-07T12:06:15;101592.78;;;9.55;53.88
2178;BME280;1095;50.992;6.798;2024-03-07T12:08:45;101595.00;;;9.61;53.10
2178;BME280;1095;50.992;6.798;2024-03-07T12:11:23;101588.09;;;9.46;53.49
2178;BME280;1095;50.992;6.798;2024-03-07T12:20:11;101577.56;;;9.72;52.58
2178;BME280;1095;50.992;6.798;2024-03-07T12:23:00;101569.19;;;9.52;52.62
2178;BME280;1095;50.992;6.798;2024-03-07T12:25:43;101567.59;;;9.50;53.44
2178;BME280;1095;50.992;6.798;2024-03-07T12:28:36;101558.22;;;9.58;52.65
2178;BME280;1095;50.992;6.798;2024-03-07T12:31:30;101548.16;;;9.51;53.04
2178;BME280;1095;50.992;6.798;2024-03-07T12:34:31;101541.28;;;9.48;53.72
2178;BME280;1095;50.992;6.798;2024-03-07T12:41:03;101547.94;;;9.41;53.61
2178;BME280;1095;50.992;6.798;2024-03-07T12:47:19;101534.81;;;9.27;55.30
2178;BME280;1095;50.992;6.798;2024-03-07T12:50:01;101523.09;;;9.31;55.31
2178;BME280;1095;50.992;6.798;2024-03-07T12:53:04;101527.97;;;9.24;55.19
2178;BME280;1095;50.992;6.798;2024-03-07T13:09:13;101509.34;;;9.64;54.24
2178;BME280;1095;50.992;6.798;2024-03-07T13:12:09;101499.34;;;9.56;54.55
2178;BME280;1095;50.992;6.798;2024-03-07T13:17:46;101497.09;;;9.63;54.35
2178;BME280;1095;50.992;6.798;2024-03-07T13:20:22;101494.69;;;9.47;54.08
2178;BME280;1095;50.992;6.798;2024-03-07T13:23:27;101491.53;;;9.42;54.55
2178;BME280;1095;50.992;6.798;2024-03-07T13:26:24;101489.81;;;9.54;53.26
2178;BME280;1095;50.992;6.798;2024-03-07T13:29:00;101486.66;;;9.49;53.99
2178;BME280;1095;50.992;6.798;2024-03-07T13:32:22;101485.59;;;9.51;53.85
2178;BME280;1095;50.992;6.798;2024-03-07T13:35:20;101484.72;;;9.63;53.61
2178;BME280;1095;50.992;6.798;2024-03-07T13:37:53;101478.16;;;9.82;52.86
2178;BME280;1095;50.992;6.798;2024-03-07T13:40:40;101479.94;;;9.81;53.60
2178;BME280;1095;50.992;6.798;2024-03-07T13:43:19;101478.03;;;9.96;53.30
2178;BME280;1095;50.992;6.798;2024-03-07T13:46:12;101480.22;;;10.02;52.66
2178;BME280;1095;50.992;6.798;2024-03-07T13:49:09;101468.28;;;10.46;52.58
2178;BME280;1095;50.992;6.798;2024-03-07T13:51:48;101462.13;;;10.46;50.98
2178;BME280;1095;50.992;6.798;2024-03-07T13:54:30;101453.88;;;10.61;50.77
2178;BME280;1095;50.992;6.798;2024-03-07T13:57:21;101462.00;;;10.47;50.71
2178;BME280;1095;50.992;6.798;2024-03-07T14:00:11;101459.38;;;10.10;51.28
2178;BME280;1095;50.992;6.798;2024-03-07T14:03:20;101457.13;;;10.17;50.04
2178;BME280;1095;50.992;6.798;2024-03-07T14:06:15;101452.91;;;10.15;50.51
2178;BME280;1095;50.992;6.798;2024-03-07T14:22:21;101443.66;;;9.96;51.60
2178;BME280;1095;50.992;6.798;2024-03-07T14:25:33;101450.28;;;9.78;51.88
2178;BME280;1095;50.992;6.798;2024-03-07T14:28:42;101450.28;;;9.78;51.68
2178;BME280;1095;50.992;6.798;2024-03-07T14:31:23;101451.47;;;9.98;51.64
2178;BME280;1095;50.992;6.798;2024-03-07T14:34:08;101441.38;;;9.79;52.05
2178;BME280;1095;50.992;6.798;2024-03-07T14:36:44;101444.09;;;9.77;51.80
2178;BME280;1095;50.992;6.798;2024-03-07T14:39:23;101440.03;;;9.73;50.64
2178;BME280;1095;50.992;6.798;2024-03-07T14:41:59;101437.97;;;9.77;50.45
2178;BME280;1095;50.992;6.798;2024-03-07T14:44:37;101445.72;;;9.67;51.89
2178;BME280;1095;50.992;6.798;2024-03-07T14:47:08;101432.31;;;9.70;52.62
2178;BME280;1095;50.992;6.798;2024-03-07T14:50:01;101439.91;;;9.75;52.88
2178;BME280;1095;50.992;6.798;2024-03-07T14:52:40;101431.34;;;9.71;53.51